Terminal Aerodrome Forecast
Issued by NWS

Home | Current Version | Previous Version | Text Only | Print | Product List | Glossary Off
Versions: 1 2 3 4 5 6 7 8 9 10 11 12 13 14 15 16 17

943
FTUS43 KBIS 060529
TAFDIK
TAF
KDIK 060529Z 0606/0706 24012KT P6SM SCT250 WS020/28040KT
     FM061700 27020G29KT P6SM SCT250 WS020/28050KT
     FM062100 27029G40KT P6SM SCT150
     FM070000 28031G42KT P6SM BKN070
     FM070300 29031G43KT P6SM VCSH OVC130=

USA.gov is the U.S. government's official web portal to all federal, state and local government web resources and services.